Albin, Wyoming
Current Conditions -  °F | °C
As of 2:35 PM on Thursday 18 Dec 2014 (Local Time) from K82V Reporting Station
Clear Clear  
Wind Chill: 29°   Ceiling: Unl
Heat Index: 37°   Visibility: 10mi
Dew Point: 23°   Wind: 14mph
Humidity: 56%   Direction: 320°NW
Pressure: 30.01"   Gusts: 20mph
Location:  41.42°N, 104.1°W
Report Text: K82V 182135Z AUTO 32012G17KT 10SM CLR 03/M05 A3001 RMK AO2
Loading
Personal Weather Stations






























Interactive Weather Map New forecast layout! Learn more

10-Day Weather Forecast

Advertisements
Track Severe Weather on mobile